Superfast Baleares — EBXD — position and weather

sailwx.info

Track history (hours):
 
Tides and Currents Weather Stations Pressure Air Temp Water Temp Dewpoint Dewpoint Depression Visibility Wind Speed Wind Dir Waves Ship Positions

Superfast Baleares

Last reported at 2016-May-05 19:33 UTC. Time now 2016-May-05 19:59 UTC.
Position N 53°38' W 000°11'.

Length 210 m; draft 7 m.

Type: Ship (hazmat cat A). MMSI: 225405000.

Date/timePositionNaut miles runAvg speedWind from/ knotsBaromVisibWave heightAir tempDewpointWater temp
2016-May-05 19:33N 53°38' W 000°11'1212.1
2016-May-05 18:33N 53°34' E 000°08'1717.5
2016-May-05 17:33N 53°44' E 000°31'40720.3
2016-May-04 21:33N 57°44' E 010°14'2019.6
2016-May-04 20:34N 57°48' E 010°50'2020.2
2016-May-04 19:33N 57°40' E 011°25'1111.4
2016-May-04 18:33N 57°40' E 011°46'3 2.9
2016-May-04 17:34N 57°41' E 011°50'0 0.0
2016-May-04 16:33N 57°41' E 011°50'0 0.0
2016-May-04 15:34N 57°41' E 011°50'0 0.0
2016-May-04 14:34N 57°41' E 011°50'0 0.0
2016-May-04 13:33N 57°41' E 011°50'0 0.0
2016-May-04 12:33N 57°41' E 011°50'0 0.0
2016-May-04 11:33N 57°41' E 011°50'0 0.0
2016-May-04 10:33N 57°41' E 011°50'0 0.0
2016-May-04 09:33N 57°41' E 011°50'0 0.0
2016-May-04 08:33N 57°41' E 011°50'0 0.0
2016-May-04 07:34N 57°41' E 011°50'0 0.0
2016-May-04 06:33N 57°41' E 011°50'0 0.3
2016-May-04 05:33N 57°41' E 011°51'1110.9
2016-May-04 04:34N 57°37' E 011°32'1515.3
2016-May-04 03:33N 57°45' E 011°06'1717.1
2016-May-04 02:33N 57°48' E 010°35'42118.7
2016-May-03 04:03N 53°42' E 000°27'918.3
2016-May-03 03:33N 53°34' E 000°18'1414.1
2016-May-03 02:33N 53°37' W 000°06'4 3.8
2016-May-03 01:34N 53°38' W 000°12'0 0.0
2016-May-03 00:33N 53°38' W 000°12'0 0.0
2016-May-02 23:34N 53°38' W 000°12'0 0.0
2016-May-02 22:33N 53°38' W 000°12'0 0.0
2016-May-02 21:34N 53°38' W 000°12'0 0.0
2016-May-02 20:33N 53°38' W 000°12'0 0.0
2016-May-02 19:34N 53°38' W 000°12'0 0.0
2016-May-02 18:33N 53°38' W 000°12'0 0.0
2016-May-02 17:33N 53°38' W 000°12'0 0.0
2016-May-02 16:33N 53°38' W 000°12'0 0.0
2016-May-02 15:33N 53°38' W 000°12'0 0.0
2016-May-02 14:33N 53°38' W 000°12'0 0.0
2016-May-02 13:33N 53°38' W 000°12'0 0.0
2016-May-02 12:33N 53°38' W 000°12'0 0.0
2016-May-02 11:33N 53°38' W 000°12'0 0.0
2016-May-02 10:33N 53°38' W 000°12'0 0.0
2016-May-02 09:33N 53°38' W 000°12'0 0.0
2016-May-02 08:33N 53°38' W 000°12'0 0.0
2016-May-02 07:33N 53°38' W 000°12'0 0.0
2016-May-02 06:33N 53°38' W 000°12'0 0.0
2016-May-02 05:33N 53°38' W 000°12'0 0.0
2016-May-02 04:34N 53°38' W 000°12'0 0.0
2016-May-02 03:33N 53°38' W 000°12'0 0.0
2016-May-02 02:34N 53°38' W 000°12'0 0.0
2016-May-02 01:33N 53°38' W 000°12'0 0.0
2016-May-02 00:33N 53°38' W 000°12'0 0.0
2016-May-01 23:34N 53°38' W 000°12'0 0.0
2016-May-01 22:33N 53°38' W 000°12'6 6.3
2016-May-01 21:33N 53°36' W 000°02'1211.8
2016-May-01 20:33N 53°35' E 000°18'44017.4
2016-Apr-30 19:15N 57°47' E 010°58'1216.9
2016-Apr-30 18:33N 57°41' E 011°17'1312.9
2016-Apr-30 17:34N 57°37' E 011°40'7 7.0
2016-Apr-30 16:33N 57°41' E 011°50'0 0.0
2016-Apr-30 15:33N 57°41' E 011°50'0 0.0
2016-Apr-30 14:33N 57°41' E 011°50'0 0.0
2016-Apr-30 13:33N 57°41' E 011°50'0 0.0
2016-Apr-30 12:33N 57°41' E 011°50'0 0.0
2016-Apr-30 11:33N 57°41' E 011°50'0 0.0
2016-Apr-30 10:33N 57°41' E 011°50'0 0.0
2016-Apr-30 09:33N 57°41' E 011°50'0 0.0
2016-Apr-30 08:33N 57°41' E 011°50'0 0.4
2016-Apr-30 07:33N 57°41' E 011°51'1211.6
2016-Apr-30 06:33N 57°38' E 011°30'1717.2
2016-Apr-30 05:34N 57°46' E 011°02'43919.0
2016-Apr-29 06:25N 53°37' E 000°21'1112.3
2016-Apr-29 05:34N 53°34' E 000°04'1010.1
2016-Apr-29 04:34N 53°38' W 000°12'0 0.2
2016-Apr-29 03:34N 53°38' W 000°12'0 0.0
2016-Apr-29 02:33N 53°38' W 000°12'0 0.0
2016-Apr-29 01:33N 53°38' W 000°12'0 0.0
2016-Apr-29 00:33N 53°38' W 000°12'0 0.0
2016-Apr-28 23:33N 53°38' W 000°12'0 0.0
2016-Apr-28 22:33N 53°38' W 000°12'0 0.0
2016-Apr-28 21:33N 53°38' W 000°12'0 0.0
2016-Apr-28 20:33N 53°38' W 000°12'1 1.3
2016-Apr-28 19:34N 53°38' W 000°10'1414.3
2016-Apr-28 18:33N 53°33' E 000°13'44919.5
2016-Apr-27 19:33N 57°41' E 011°16'1515.3
2016-Apr-27 18:33N 57°39' E 011°45'3 3.5
2016-Apr-27 17:33N 57°41' E 011°50'0 0.0
2016-Apr-27 16:33N 57°41' E 011°50'0 0.0
2016-Apr-27 15:33N 57°41' E 011°50'0 0.0
2016-Apr-27 14:33N 57°41' E 011°50'0 0.0
2016-Apr-27 13:33N 57°41' E 011°50'0 0.0
2016-Apr-27 12:33N 57°41' E 011°50'0 0.0
2016-Apr-27 11:33N 57°41' E 011°50'0 0.0
2016-Apr-27 10:33N 57°41' E 011°50'0 0.0
2016-Apr-27 09:33N 57°41' E 011°50'0 0.0
2016-Apr-27 08:34N 57°41' E 011°50'0 0.0
2016-Apr-27 07:33N 57°41' E 011°50'0 0.0
2016-Apr-27 06:34N 57°41' E 011°50'0 0.0
2016-Apr-27 05:33N 57°41' E 011°50'1 0.6
2016-Apr-27 04:33N 57°41' E 011°51'1211.9
2016-Apr-27 03:33N 57°38' E 011°30'1717.0
2016-Apr-27 02:33N 57°46' E 011°02'43619.8
2016-Apr-26 04:32N 53°39' E 000°23'1212.7
2016-Apr-26 03:33N 53°35' E 000°03'10 9.5
2016-Apr-26 02:34N 53°38' W 000°12'0 0.2
2016-Apr-26 01:33N 53°38' W 000°12'0 0.0
2016-Apr-26 00:33N 53°38' W 000°12'0 0.0
2016-Apr-25 23:33N 53°38' W 000°12'0 0.0
2016-Apr-25 22:33N 53°38' W 000°12'0 0.0
2016-Apr-25 21:34N 53°38' W 000°12'0 0.0
2016-Apr-25 20:33N 53°38' W 000°12'  
Track history (hours):
 
Tides and Currents Weather Stations Pressure Air Temp Water Temp Dewpoint Dewpoint Depression Visibility Wind Speed Wind Dir Waves Ship Positions

Superfast Baleares

Last reported at 2016-May-05 19:33 UTC. Time now 2016-May-05 19:59 UTC.
Position N 53°38' W 000°11'.

Length 210 m; draft 7 m.

Type: Ship (hazmat cat A). MMSI: 225405000.

Date/timePositionNaut miles runAvg speedWind from/ knotsBaromVisibWave heightAir tempDewpointWater temp
2016-May-05 19:33N 53°38' W 000°11'1212.1
2016-May-05 18:33N 53°34' E 000°08'1717.5
2016-May-05 17:33N 53°44' E 000°31'40720.3
2016-May-04 21:33N 57°44' E 010°14'2019.6
2016-May-04 20:34N 57°48' E 010°50'2020.2
2016-May-04 19:33N 57°40' E 011°25'1111.4
2016-May-04 18:33N 57°40' E 011°46'3 2.9
2016-May-04 17:34N 57°41' E 011°50'0 0.0
2016-May-04 16:33N 57°41' E 011°50'0 0.0
2016-May-04 15:34N 57°41' E 011°50'0 0.0
2016-May-04 14:34N 57°41' E 011°50'0 0.0
2016-May-04 13:33N 57°41' E 011°50'0 0.0
2016-May-04 12:33N 57°41' E 011°50'0 0.0
2016-May-04 11:33N 57°41' E 011°50'0 0.0
2016-May-04 10:33N 57°41' E 011°50'0 0.0
2016-May-04 09:33N 57°41' E 011°50'0 0.0
2016-May-04 08:33N 57°41' E 011°50'0 0.0
2016-May-04 07:34N 57°41' E 011°50'0 0.0
2016-May-04 06:33N 57°41' E 011°50'0 0.3
2016-May-04 05:33N 57°41' E 011°51'1110.9
2016-May-04 04:34N 57°37' E 011°32'1515.3
2016-May-04 03:33N 57°45' E 011°06'1717.1
2016-May-04 02:33N 57°48' E 010°35'42118.7
2016-May-03 04:03N 53°42' E 000°27'918.3
2016-May-03 03:33N 53°34' E 000°18'1414.1
2016-May-03 02:33N 53°37' W 000°06'4 3.8
2016-May-03 01:34N 53°38' W 000°12'0 0.0
2016-May-03 00:33N 53°38' W 000°12'0 0.0
2016-May-02 23:34N 53°38' W 000°12'0 0.0
2016-May-02 22:33N 53°38' W 000°12'0 0.0
2016-May-02 21:34N 53°38' W 000°12'0 0.0
2016-May-02 20:33N 53°38' W 000°12'0 0.0
2016-May-02 19:34N 53°38' W 000°12'0 0.0
2016-May-02 18:33N 53°38' W 000°12'0 0.0
2016-May-02 17:33N 53°38' W 000°12'0 0.0
2016-May-02 16:33N 53°38' W 000°12'0 0.0
2016-May-02 15:33N 53°38' W 000°12'0 0.0
2016-May-02 14:33N 53°38' W 000°12'0 0.0
2016-May-02 13:33N 53°38' W 000°12'0 0.0
2016-May-02 12:33N 53°38' W 000°12'0 0.0
2016-May-02 11:33N 53°38' W 000°12'0 0.0
2016-May-02 10:33N 53°38' W 000°12'0 0.0
2016-May-02 09:33N 53°38' W 000°12'0 0.0
2016-May-02 08:33N 53°38' W 000°12'0 0.0
2016-May-02 07:33N 53°38' W 000°12'0 0.0
2016-May-02 06:33N 53°38' W 000°12'0 0.0
2016-May-02 05:33N 53°38' W 000°12'0 0.0
2016-May-02 04:34N 53°38' W 000°12'0 0.0
2016-May-02 03:33N 53°38' W 000°12'0 0.0
2016-May-02 02:34N 53°38' W 000°12'0 0.0
2016-May-02 01:33N 53°38' W 000°12'0 0.0
2016-May-02 00:33N 53°38' W 000°12'0 0.0
2016-May-01 23:34N 53°38' W 000°12'0 0.0
2016-May-01 22:33N 53°38' W 000°12'6 6.3
2016-May-01 21:33N 53°36' W 000°02'1211.8
2016-May-01 20:33N 53°35' E 000°18'44017.4
2016-Apr-30 19:15N 57°47' E 010°58'1216.9
2016-Apr-30 18:33N 57°41' E 011°17'1312.9
2016-Apr-30 17:34N 57°37' E 011°40'7 7.0
2016-Apr-30 16:33N 57°41' E 011°50'0 0.0
2016-Apr-30 15:33N 57°41' E 011°50'0 0.0
2016-Apr-30 14:33N 57°41' E 011°50'0 0.0
2016-Apr-30 13:33N 57°41' E 011°50'0 0.0
2016-Apr-30 12:33N 57°41' E 011°50'0 0.0
2016-Apr-30 11:33N 57°41' E 011°50'0 0.0
2016-Apr-30 10:33N 57°41' E 011°50'0 0.0
2016-Apr-30 09:33N 57°41' E 011°50'0 0.0
2016-Apr-30 08:33N 57°41' E 011°50'0 0.4
2016-Apr-30 07:33N 57°41' E 011°51'1211.6
2016-Apr-30 06:33N 57°38' E 011°30'1717.2
2016-Apr-30 05:34N 57°46' E 011°02'43919.0
2016-Apr-29 06:25N 53°37' E 000°21'1112.3
2016-Apr-29 05:34N 53°34' E 000°04'1010.1
2016-Apr-29 04:34N 53°38' W 000°12'0 0.2
2016-Apr-29 03:34N 53°38' W 000°12'0 0.0
2016-Apr-29 02:33N 53°38' W 000°12'0 0.0
2016-Apr-29 01:33N 53°38' W 000°12'0 0.0
2016-Apr-29 00:33N 53°38' W 000°12'0 0.0
2016-Apr-28 23:33N 53°38' W 000°12'0 0.0
2016-Apr-28 22:33N 53°38' W 000°12'0 0.0
2016-Apr-28 21:33N 53°38' W 000°12'0 0.0
2016-Apr-28 20:33N 53°38' W 000°12'1 1.3
2016-Apr-28 19:34N 53°38' W 000°10'1414.3
2016-Apr-28 18:33N 53°33' E 000°13'44919.5
2016-Apr-27 19:33N 57°41' E 011°16'1515.3
2016-Apr-27 18:33N 57°39' E 011°45'3 3.5
2016-Apr-27 17:33N 57°41' E 011°50'0 0.0
2016-Apr-27 16:33N 57°41' E 011°50'0 0.0
2016-Apr-27 15:33N 57°41' E 011°50'0 0.0
2016-Apr-27 14:33N 57°41' E 011°50'0 0.0
2016-Apr-27 13:33N 57°41' E 011°50'0 0.0
2016-Apr-27 12:33N 57°41' E 011°50'0 0.0
2016-Apr-27 11:33N 57°41' E 011°50'0 0.0
2016-Apr-27 10:33N 57°41' E 011°50'0 0.0
2016-Apr-27 09:33N 57°41' E 011°50'0 0.0
2016-Apr-27 08:34N 57°41' E 011°50'0 0.0
2016-Apr-27 07:33N 57°41' E 011°50'0 0.0
2016-Apr-27 06:34N 57°41' E 011°50'0 0.0
2016-Apr-27 05:33N 57°41' E 011°50'1 0.6
2016-Apr-27 04:33N 57°41' E 011°51'1211.9
2016-Apr-27 03:33N 57°38' E 011°30'1717.0
2016-Apr-27 02:33N 57°46' E 011°02'43619.8
2016-Apr-26 04:32N 53°39' E 000°23'1212.7
2016-Apr-26 03:33N 53°35' E 000°03'10 9.5
2016-Apr-26 02:34N 53°38' W 000°12'0 0.2
2016-Apr-26 01:33N 53°38' W 000°12'0 0.0
2016-Apr-26 00:33N 53°38' W 000°12'0 0.0
2016-Apr-25 23:33N 53°38' W 000°12'0 0.0
2016-Apr-25 22:33N 53°38' W 000°12'0 0.0
2016-Apr-25 21:34N 53°38' W 000°12'0 0.0
2016-Apr-25 20:33N 53°38' W 000°12'  

Dump ship's entire track history